Time;durP1;ratioP1;P1;durP2;ratioP2;P2;SDS_P1;SDS_P2;PMS_P1;PMS_P2;Temp;Humidity;BMP_temperature;BMP_pressure;BME280_temperature;BME280_humidity;BME280_pressure;Samples;Min_cycle;Max_cycle;Signal;HPM_P1;HPM_P2
2023/10/05 00:01:18;;;;;;;7.47;2.58;;;;;;;;;;7372803;19;20023;-74
2023/10/05 00:03:47;;;;;;;7.20;2.78;;;;;;;;;;7370887;19;20767;-75
2023/10/05 00:06:23;;;;;;;7.75;3.30;;;;;;;;;;7370948;19;20424;-75
2023/10/05 00:08:50;;;;;;;8.02;2.95;;;;;;;;;;7368685;19;20019;-75
2023/10/05 00:11:24;;;;;;;6.75;2.75;;;;;;;;;;7393328;19;20479;-74
2023/10/05 00:13:50;;;;;;;7.28;2.88;;;;;;;;;;7370316;19;20002;-74
2023/10/05 00:16:21;;;;;;;8.65;2.80;;;;;;;;;;7370028;19;20350;-74
2023/10/05 00:18:50;;;;;;;10.38;3.40;;;;;;;;;;7370061;19;20013;-75
2023/10/05 00:21:20;;;;;;;15.10;3.45;;;;;;;;;;7371506;19;20541;-75
2023/10/05 00:23:57;;;;;;;7.25;2.75;;;;;;;;;;7368224;19;20011;-75
2023/10/05 00:26:28;;;;;;;8.32;3.15;;;;;;;;;;7394185;19;20006;-74
2023/10/05 00:31:41;;;;;;;9.80;3.03;;;;;;;;;;7371200;19;20020;-75
2023/10/05 00:34:15;;;;;;;10.07;3.90;;;;;;;;;;7370567;19;20078;-75
2023/10/05 00:36:43;;;;;;;9.20;3.30;;;;;;;;;;7371124;19;20023;-75
2023/10/05 00:39:09;;;;;;;8.65;3.08;;;;;;;;;;7369052;19;20086;-75
2023/10/05 00:41:35;;;;;;;12.25;3.45;;;;;;;;;;7392992;19;20006;-75
2023/10/05 00:44:01;;;;;;;7.50;3.17;;;;;;;;;;7370369;19;20006;-75
2023/10/05 00:46:31;;;;;;;8.05;3.10;;;;;;;;;;7371143;19;20002;-75
2023/10/05 00:49:15;;;;;;;9.40;3.35;;;;;;;;;;7371304;19;20490;-75
2023/10/05 00:51:54;;;;;;;8.95;3.22;;;;;;;;;;7370174;19;20666;-75
2023/10/05 00:54:28;;;;;;;9.48;3.08;;;;;;;;;;7369995;19;20132;-75
2023/10/05 00:56:55;;;;;;;10.40;3.38;;;;;;;;;;7369229;19;20028;-75
2023/10/05 00:59:21;;;;;;;8.10;3.40;;;;;;;;;;7389959;19;20007;-75
2023/10/05 01:02:14;;;;;;;9.50;3.05;;;;;;;;;;7365255;19;20002;-75
2023/10/05 01:07:17;;;;;;;9.38;3.38;;;;;;;;;;7366981;19;20611;-75
2023/10/05 01:12:22;;;;;;;10.27;3.45;;;;;;;;;;7367870;19;20050;-75
2023/10/05 01:14:53;;;;;;;7.30;3.33;;;;;;;;;;7370946;19;20027;-75
2023/10/05 01:17:23;;;;;;;10.07;3.72;;;;;;;;;;7390702;19;20006;-74
2023/10/05 01:19:55;;;;;;;8.15;3.50;;;;;;;;;;7369052;19;20073;-75
2023/10/05 01:22:21;;;;;;;9.60;3.80;;;;;;;;;;7369152;19;20002;-75
2023/10/05 01:24:48;;;;;;;8.57;3.45;;;;;;;;;;7371407;19;20006;-75
2023/10/05 01:27:14;;;;;;;7.53;3.88;;;;;;;;;;7367567;19;20010;-75
2023/10/05 01:29:40;;;;;;;8.60;4.10;;;;;;;;;;7391622;19;20545;-75
2023/10/05 01:32:07;;;;;;;10.23;3.75;;;;;;;;;;7368689;19;20026;-75
2023/10/05 01:34:32;;;;;;;11.10;3.67;;;;;;;;;;7368779;19;19999;-75
2023/10/05 01:36:58;;;;;;;7.97;3.65;;;;;;;;;;7368680;19;20012;-75
2023/10/05 01:39:25;;;;;;;7.68;3.22;;;;;;;;;;7369360;19;20393;-75
2023/10/05 01:41:50;;;;;;;10.35;3.40;;;;;;;;;;7370143;19;20086;-75
2023/10/05 01:44:16;;;;;;;7.32;3.90;;;;;;;;;;7391413;19;20019;-75
2023/10/05 01:46:42;;;;;;;9.88;3.67;;;;;;;;;;7369149;19;19998;-75
2023/10/05 01:49:08;;;;;;;9.25;4.13;;;;;;;;;;7370123;19;20014;-75
2023/10/05 01:51:33;;;;;;;9.65;4.00;;;;;;;;;;7369807;19;20010;-75
2023/10/05 01:54:01;;;;;;;9.02;4.30;;;;;;;;;;7369803;19;20464;-75
2023/10/05 01:56:27;;;;;;;11.63;4.53;;;;;;;;;;7391778;19;19999;-75
2023/10/05 01:58:54;;;;;;;14.32;4.30;;;;;;;;;;7367358;19;19998;-75
2023/10/05 02:01:26;;;;;;;9.30;3.15;;;;;;;;;;7368637;19;20002;-75
2023/10/05 02:03:57;;;;;;;8.52;3.65;;;;;;;;;;7366880;19;20053;-75
2023/10/05 02:06:22;;;;;;;9.07;3.63;;;;;;;;;;7368656;19;20066;-75
2023/10/05 02:08:48;;;;;;;9.57;4.10;;;;;;;;;;7369268;19;20015;-75
2023/10/05 02:11:24;;;;;;;8.70;4.10;;;;;;;;;;7389933;19;20010;-75
2023/10/05 02:13:52;;;;;;;10.23;3.80;;;;;;;;;;7366784;19;20014;-75
2023/10/05 02:16:23;;;;;;;9.93;4.47;;;;;;;;;;7368775;19;20372;-75
2023/10/05 02:18:49;;;;;;;10.85;3.67;;;;;;;;;;7367873;19;20507;-75
2023/10/05 02:21:19;;;;;;;11.73;3.58;;;;;;;;;;7367640;19;20002;-75
2023/10/05 02:23:47;;;;;;;13.17;3.77;;;;;;;;;;7366278;19;20023;-75
2023/10/05 02:28:58;;;;;;;10.55;3.78;;;;;;;;;;7368646;19;20013;-75
2023/10/05 02:31:23;;;;;;;8.05;3.72;;;;;;;;;;7367432;19;20011;-75
2023/10/05 02:33:52;;;;;;;7.28;3.80;;;;;;;;;;7366442;19;20009;-75
2023/10/05 02:36:21;;;;;;;13.73;3.97;;;;;;;;;;7367457;19;20165;-75
2023/10/05 02:38:49;;;;;;;8.05;3.78;;;;;;;;;;7368565;19;20351;-75
2023/10/05 02:41:24;;;;;;;8.55;3.92;;;;;;;;;;7394589;19;20432;-75
2023/10/05 02:43:53;;;;;;;9.57;4.22;;;;;;;;;;7373541;19;20480;-75
2023/10/05 02:46:20;;;;;;;11.63;4.05;;;;;;;;;;7375372;19;20085;-75
2023/10/05 02:48:46;;;;;;;8.57;3.90;;;;;;;;;;7375481;19;20509;-75
2023/10/05 02:51:13;;;;;;;12.35;4.72;;;;;;;;;;7375546;19;20109;-75
2023/10/05 02:53:47;;;;;;;11.52;4.32;;;;;;;;;;7397872;19;20009;-75
2023/10/05 02:56:20;;;;;;;14.95;4.75;;;;;;;;;;7377086;19;20018;-75
2023/10/05 02:58:48;;;;;;;16.42;4.82;;;;;;;;;;7372115;19;21011;-75
2023/10/05 03:01:15;;;;;;;14.30;4.78;;;;;;;;;;7376533;19;20010;-75
2023/10/05 03:03:42;;;;;;;9.07;4.28;;;;;;;;;;7373944;19;20025;-75
2023/10/05 03:06:10;;;;;;;11.82;4.25;;;;;;;;;;7376639;19;20010;-75
2023/10/05 03:08:36;;;;;;;11.15;4.18;;;;;;;;;;7396063;19;20311;-75
2023/10/05 03:11:02;;;;;;;14.93;4.05;;;;;;;;;;7375173;19;20556;-75
2023/10/05 03:13:27;;;;;;;15.27;4.43;;;;;;;;;;7372343;19;20018;-75
2023/10/05 03:15:54;;;;;;;10.80;4.30;;;;;;;;;;7374603;19;20023;-75
2023/10/05 03:18:20;;;;;;;11.10;3.90;;;;;;;;;;7374198;19;20034;-75
2023/10/05 03:20:46;;;;;;;12.75;3.92;;;;;;;;;;7372937;19;20053;-76
2023/10/05 03:23:14;;;;;;;11.48;4.97;;;;;;;;;;7393340;19;20003;-75
2023/10/05 03:25:40;;;;;;;14.48;4.88;;;;;;;;;;7374489;19;20006;-75
2023/10/05 03:28:06;;;;;;;14.43;4.50;;;;;;;;;;7373448;19;20010;-75
2023/10/05 03:30:35;;;;;;;13.95;4.20;;;;;;;;;;7374276;19;20010;-75
2023/10/05 03:33:01;;;;;;;9.90;4.32;;;;;;;;;;7371359;19;20050;-75
2023/10/05 03:35:27;;;;;;;7.50;3.92;;;;;;;;;;7395780;19;20365;-75
2023/10/05 03:37:53;;;;;;;9.30;4.43;;;;;;;;;;7373106;19;20082;-75
2023/10/05 03:40:36;;;;;;;8.10;4.40;;;;;;;;;;7374595;19;20050;-75
2023/10/05 03:43:03;;;;;;;9.88;4.30;;;;;;;;;;7373284;19;20409;-75
2023/10/05 03:45:29;;;;;;;10.93;5.20;;;;;;;;;;7375483;19;20030;-75
2023/10/05 03:47:54;;;;;;;12.95;3.90;;;;;;;;;;7374054;19;20002;-75
2023/10/05 03:50:20;;;;;;;9.98;4.25;;;;;;;;;;7395302;19;20452;-75
2023/10/05 03:52:46;;;;;;;8.32;4.13;;;;;;;;;;7370556;19;20781;-75
2023/10/05 03:55:12;;;;;;;11.52;4.43;;;;;;;;;;7374929;19;20006;-75
2023/10/05 03:57:38;;;;;;;11.88;4.35;;;;;;;;;;7371592;19;20468;-75
2023/10/05 04:00:23;;;;;;;7.78;4.22;;;;;;;;;;7374057;19;20026;-76
2023/10/05 04:02:52;;;;;;;9.35;4.05;;;;;;;;;;7372129;19;20031;-76
2023/10/05 04:05:22;;;;;;;14.18;4.35;;;;;;;;;;7395843;19;20024;-76
2023/10/05 04:07:49;;;;;;;8.38;4.22;;;;;;;;;;7374266;19;20385;-76
2023/10/05 04:10:15;;;;;;;8.70;3.95;;;;;;;;;;7373173;19;20007;-76
2023/10/05 04:12:41;;;;;;;9.25;4.95;;;;;;;;;;7371537;19;20021;-75
2023/10/05 04:15:11;;;;;;;9.85;4.18;;;;;;;;;;7372345;19;20010;-76
2023/10/05 04:17:37;;;;;;;9.00;4.07;;;;;;;;;;7392783;19;20002;-76
2023/10/05 04:20:17;;;;;;;13.20;4.72;;;;;;;;;;7371694;19;20032;-76
2023/10/05 04:22:43;;;;;;;11.75;4.60;;;;;;;;;;7369869;19;20011;-75
2023/10/05 04:25:11;;;;;;;11.63;4.93;;;;;;;;;;7372703;19;20056;-76
2023/10/05 04:27:38;;;;;;;9.80;4.20;;;;;;;;;;7371587;19;20358;-75
2023/10/05 04:30:04;;;;;;;13.43;4.68;;;;;;;;;;7371145;19;20482;-76
2023/10/05 04:32:29;;;;;;;9.20;3.92;;;;;;;;;;7389737;19;20436;-75
2023/10/05 04:34:56;;;;;;;12.25;4.47;;;;;;;;;;7370848;19;20017;-75
2023/10/05 04:37:21;;;;;;;14.27;5.30;;;;;;;;;;7373435;19;20003;-75
2023/10/05 04:39:48;;;;;;;9.88;4.47;;;;;;;;;;7371916;19;20039;-75
2023/10/05 04:42:15;;;;;;;11.52;4.60;;;;;;;;;;7370290;19;20011;-76
2023/10/05 04:44:41;;;;;;;13.30;4.43;;;;;;;;;;7388829;19;20014;-76
2023/10/05 04:47:09;;;;;;;13.30;5.13;;;;;;;;;;7378289;19;20013;-75
2023/10/05 04:49:37;;;;;;;10.25;4.70;;;;;;;;;;7368279;19;20002;-76
2023/10/05 04:52:06;;;;;;;10.02;5.07;;;;;;;;;;7368980;19;20068;-76
2023/10/05 04:54:38;;;;;;;8.93;4.47;;;;;;;;;;7372461;19;20708;-77
2023/10/05 04:57:22;;;;;;;11.52;4.82;;;;;;;;;;7373687;19;20014;-76
2023/10/05 04:59:48;;;;;;;12.30;4.40;;;;;;;;;;7371687;19;20055;-76
2023/10/05 05:02:35;;;;;;;14.48;5.38;;;;;;;;;;7390907;19;20515;-76
2023/10/05 05:07:45;;;;;;;10.23;4.55;;;;;;;;;;7368071;19;20005;-73
2023/10/05 05:10:11;;;;;;;9.00;4.25;;;;;;;;;;7371431;19;20007;-72
2023/10/05 05:12:38;;;;;;;11.65;4.40;;;;;;;;;;7366304;19;20010;-73
2023/10/05 05:15:05;;;;;;;11.30;4.82;;;;;;;;;;7367574;19;20010;-73
2023/10/05 05:17:32;;;;;;;10.77;5.00;;;;;;;;;;7390794;19;20426;-73
2023/10/05 05:19:58;;;;;;;9.05;5.28;;;;;;;;;;7367781;19;20006;-73
2023/10/05 05:22:24;;;;;;;12.27;4.50;;;;;;;;;;7367713;19;20065;-73
2023/10/05 05:24:50;;;;;;;10.38;4.97;;;;;;;;;;7368755;19;20014;-73
2023/10/05 05:29:47;;;;;;;10.68;4.65;;;;;;;;;;7371179;19;20009;-73
2023/10/05 05:32:13;;;;;;;9.38;4.03;;;;;;;;;;7391913;19;20515;-75
2023/10/05 05:34:42;;;;;;;11.35;4.07;;;;;;;;;;7371677;19;20010;-75
2023/10/05 05:37:08;;;;;;;11.15;4.68;;;;;;;;;;7375091;19;20011;-75
2023/10/05 05:39:40;;;;;;;11.27;4.07;;;;;;;;;;7375330;19;20016;-75
2023/10/05 05:42:13;;;;;;;12.45;4.72;;;;;;;;;;7375272;19;20010;-74
2023/10/05 05:44:38;;;;;;;11.93;4.05;;;;;;;;;;7395516;19;20037;-72
2023/10/05 05:47:09;;;;;;;8.93;3.70;;;;;;;;;;7364871;19;19994;-76
2023/10/05 05:49:38;;;;;;;10.35;3.58;;;;;;;;;;7373757;19;20034;-73
2023/10/05 05:52:05;;;;;;;9.18;4.13;;;;;;;;;;7373507;19;20127;-73
2023/10/05 05:54:35;;;;;;;9.90;3.70;;;;;;;;;;7368639;19;20039;-73
2023/10/05 05:57:00;;;;;;;13.60;4.38;;;;;;;;;;7369109;19;21044;-74
2023/10/05 05:59:26;;;;;;;9.55;3.78;;;;;;;;;;7386498;19;20070;-72
2023/10/05 06:01:51;;;;;;;9.32;4.50;;;;;;;;;;7365856;19;20002;-73
2023/10/05 06:04:17;;;;;;;12.15;4.90;;;;;;;;;;7364208;19;19999;-73
2023/10/05 06:06:44;;;;;;;12.90;4.70;;;;;;;;;;7365398;19;20007;-72
2023/10/05 06:09:11;;;;;;;14.18;4.85;;;;;;;;;;7366994;19;19999;-72
2023/10/05 06:11:38;;;;;;;12.40;4.70;;;;;;;;;;7387326;19;20040;-75
2023/10/05 06:14:04;;;;;;;10.05;5.13;;;;;;;;;;7362769;19;20043;-74
2023/10/05 06:16:33;;;;;;;13.23;5.22;;;;;;;;;;7366967;19;20006;-74
2023/10/05 06:18:59;;;;;;;14.05;5.50;;;;;;;;;;7364676;19;20006;-74
2023/10/05 06:21:25;;;;;;;9.43;4.32;;;;;;;;;;7362738;19;20019;-73
2023/10/05 06:23:51;;;;;;;13.50;5.43;;;;;;;;;;7362157;19;20017;-73
2023/10/05 06:26:16;;;;;;;15.90;5.93;;;;;;;;;;7376763;19;20003;-74
2023/10/05 06:28:42;;;;;;;13.75;5.53;;;;;;;;;;7355388;19;19998;-76
2023/10/05 06:31:10;;;;;;;11.43;5.00;;;;;;;;;;7361625;19;20002;-75
2023/10/05 06:33:37;;;;;;;8.63;4.88;;;;;;;;;;7374604;19;20053;-76
2023/10/05 06:36:03;;;;;;;11.90;5.03;;;;;;;;;;7362107;19;20974;-75
2023/10/05 06:38:28;;;;;;;10.50;4.97;;;;;;;;;;7363587;19;20013;-74
2023/10/05 06:40:54;;;;;;;11.68;5.10;;;;;;;;;;7362812;19;20026;-74
2023/10/05 06:43:21;;;;;;;11.02;5.18;;;;;;;;;;7358972;19;20367;-74
2023/10/05 06:45:48;;;;;;;11.38;5.38;;;;;;;;;;7386388;19;20007;-76
2023/10/05 06:48:14;;;;;;;10.57;5.00;;;;;;;;;;7364533;19;20078;-72
2023/10/05 06:50:40;;;;;;;10.48;4.72;;;;;;;;;;7365256;19;20031;-71
2023/10/05 06:53:07;;;;;;;9.98;4.90;;;;;;;;;;7360831;19;20465;-72
2023/10/05 06:55:32;;;;;;;12.05;5.38;;;;;;;;;;7362864;19;20010;-72
2023/10/05 06:57:58;;;;;;;14.65;5.05;;;;;;;;;;7381242;19;20038;-71
2023/10/05 07:00:23;;;;;;;13.35;5.25;;;;;;;;;;7360608;19;20011;-72
2023/10/05 07:02:50;;;;;;;11.68;5.63;;;;;;;;;;7361017;19;20050;-71
2023/10/05 07:05:17;;;;;;;11.68;5.07;;;;;;;;;;7363982;19;20079;-73
2023/10/05 07:07:43;;;;;;;11.13;4.60;;;;;;;;;;7364684;19;20007;-72
2023/10/05 07:10:10;;;;;;;12.02;4.60;;;;;;;;;;7380437;19;20007;-72
2023/10/05 07:12:39;;;;;;;9.32;4.60;;;;;;;;;;7360640;19;20015;-72
2023/10/05 07:15:05;;;;;;;12.43;5.00;;;;;;;;;;7363695;19;20046;-71
2023/10/05 07:17:32;;;;;;;8.30;4.47;;;;;;;;;;7361129;19;20013;-73
2023/10/05 07:19:58;;;;;;;9.57;4.22;;;;;;;;;;7364768;19;20392;-71
2023/10/05 07:22:23;;;;;;;13.88;4.43;;;;;;;;;;7360728;19;20014;-71
2023/10/05 07:24:49;;;;;;;10.00;4.97;;;;;;;;;;7386575;19;20427;-73
2023/10/05 07:27:15;;;;;;;10.88;4.07;;;;;;;;;;7370277;19;20048;-71
2023/10/05 07:29:45;;;;;;;11.68;3.70;;;;;;;;;;7369697;19;20804;-73
2023/10/05 07:32:12;;;;;;;8.20;3.92;;;;;;;;;;7368129;19;20015;-73
2023/10/05 07:34:38;;;;;;;11.40;4.15;;;;;;;;;;7367668;19;20006;-72
2023/10/05 07:37:05;;;;;;;10.85;5.30;;;;;;;;;;7392519;19;20013;-70
2023/10/05 07:39:31;;;;;;;15.45;4.07;;;;;;;;;;7366672;19;20007;-72
2023/10/05 07:41:59;;;;;;;9.80;4.30;;;;;;;;;;7369010;19;20006;-71
2023/10/05 07:44:24;;;;;;;10.52;4.10;;;;;;;;;;7369516;19;20002;-71
2023/10/05 07:46:49;;;;;;;9.43;3.88;;;;;;;;;;7369627;19;20639;-74
2023/10/05 07:49:14;;;;;;;8.77;3.60;;;;;;;;;;7368648;19;20002;-74
2023/10/05 07:51:40;;;;;;;11.05;3.97;;;;;;;;;;7390658;19;20013;-73
2023/10/05 07:54:06;;;;;;;8.88;3.97;;;;;;;;;;7367603;19;20537;-73
2023/10/05 07:56:32;;;;;;;10.45;3.85;;;;;;;;;;7369600;19;20030;-73
2023/10/05 07:58:58;;;;;;;12.90;4.00;;;;;;;;;;7369281;19;20002;-73
2023/10/05 08:01:25;;;;;;;9.80;4.10;;;;;;;;;;7369392;19;20017;-73
2023/10/05 08:03:51;;;;;;;9.60;3.92;;;;;;;;;;7386500;19;20033;-72
2023/10/05 08:06:17;;;;;;;8.35;3.90;;;;;;;;;;7368621;19;20707;-74
2023/10/05 08:08:43;;;;;;;8.13;3.85;;;;;;;;;;7368772;19;20074;-74
2023/10/05 08:11:12;;;;;;;8.23;3.33;;;;;;;;;;7369907;19;20002;-74
2023/10/05 08:13:37;;;;;;;14.27;4.00;;;;;;;;;;7364696;19;20022;-74
2023/10/05 08:16:03;;;;;;;10.85;3.60;;;;;;;;;;7389990;19;20010;-73
2023/10/05 08:18:29;;;;;;;9.82;3.65;;;;;;;;;;7367711;19;20034;-71
2023/10/05 08:20:54;;;;;;;12.02;4.25;;;;;;;;;;7368786;19;20064;-76
2023/10/05 08:23:19;;;;;;;9.02;4.00;;;;;;;;;;7367766;19;20002;-75
2023/10/05 08:25:46;;;;;;;11.43;3.58;;;;;;;;;;7368667;19;20024;-75
2023/10/05 08:28:12;;;;;;;9.68;3.17;;;;;;;;;;7370064;19;20002;-73
2023/10/05 08:30:45;;;;;;;11.45;3.30;;;;;;;;;;7391125;19;20054;-73
2023/10/05 08:33:15;;;;;;;9.65;3.38;;;;;;;;;;7366134;19;20002;-73
2023/10/05 08:35:41;;;;;;;9.35;3.85;;;;;;;;;;7368946;19;20074;-73
2023/10/05 08:38:13;;;;;;;10.15;3.22;;;;;;;;;;7366506;19;20419;-74
2023/10/05 08:40:38;;;;;;;9.10;3.60;;;;;;;;;;7368715;19;20500;-75
2023/10/05 08:43:09;;;;;;;9.10;3.00;;;;;;;;;;7388960;19;19995;-74
2023/10/05 08:45:46;;;;;;;8.73;2.88;;;;;;;;;;7369845;19;20078;-74
2023/10/05 08:48:19;;;;;;;9.07;3.70;;;;;;;;;;7372286;19;20018;-75
2023/10/05 08:50:48;;;;;;;18.15;9.43;;;;;;;;;;7371819;19;20014;-74
2023/10/05 08:53:14;;;;;;;8.32;3.40;;;;;;;;;;7369113;19;20006;-75
2023/10/05 08:55:44;;;;;;;9.18;3.40;;;;;;;;;;7370047;19;20470;-74
2023/10/05 08:58:11;;;;;;;10.70;3.30;;;;;;;;;;7386877;19;20019;-72
2023/10/05 09:00:39;;;;;;;7.07;2.90;;;;;;;;;;7391205;19;19998;-72
2023/10/05 09:03:29;;;;;;;10.70;3.30;;;;;;;;;;7367211;19;20088;-75
2023/10/05 09:06:20;;;;;;;10.20;3.27;;;;;;;;;;7369474;19;19998;-73
2023/10/05 09:11:33;;;;;;;12.73;4.20;;;;;;;;;;7368253;19;20011;-74
2023/10/05 09:14:08;;;;;;;9.63;4.13;;;;;;;;;;7366646;19;20455;-72
2023/10/05 09:16:41;;;;;;;10.00;3.25;;;;;;;;;;7368233;19;20333;-76
2023/10/05 09:19:07;;;;;;;8.50;2.65;;;;;;;;;;7388097;19;20007;-73
2023/10/05 09:21:42;;;;;;;10.80;3.55;;;;;;;;;;7367620;19;20009;-72
2023/10/05 09:24:21;;;;;;;7.85;2.63;;;;;;;;;;7364994;19;20633;-74
2023/10/05 09:26:51;;;;;;;8.48;3.03;;;;;;;;;;7367619;19;20006;-75
2023/10/05 09:29:32;;;;;;;11.82;3.53;;;;;;;;;;7368782;19;20013;-74
2023/10/05 09:31:59;;;;;;;8.88;2.80;;;;;;;;;;7365603;19;20009;-74
2023/10/05 09:34:49;;;;;;;8.52;3.00;;;;;;;;;;7355115;19;20433;-73
2023/10/05 09:37:16;;;;;;;9.38;2.70;;;;;;;;;;7363982;19;20011;-74
2023/10/05 09:39:46;;;;;;;7.28;2.90;;;;;;;;;;7385679;19;20013;-73
2023/10/05 09:42:25;;;;;;;9.48;2.90;;;;;;;;;;7362079;19;20070;-73
2023/10/05 09:44:57;;;;;;;8.38;2.72;;;;;;;;;;7365138;19;20003;-72
2023/10/05 09:47:32;;;;;;;9.55;2.65;;;;;;;;;;7364121;19;20006;-74
2023/10/05 09:50:07;;;;;;;8.23;2.95;;;;;;;;;;7363301;19;19998;-73
2023/10/05 09:52:36;;;;;;;8.50;2.70;;;;;;;;;;7361604;19;20493;-74
2023/10/05 09:55:06;;;;;;;7.82;2.67;;;;;;;;;;7386086;19;20026;-74
2023/10/05 09:57:42;;;;;;;12.80;6.17;;;;;;;;;;7369093;19;20013;-74
2023/10/05 10:00:29;;;;;;;6.93;2.65;;;;;;;;;;7364058;19;20013;-73
2023/10/05 10:03:00;;;;;;;11.20;2.90;;;;;;;;;;7363313;19;20420;-73
2023/10/05 10:05:51;;;;;;;9.63;2.65;;;;;;;;;;7364040;19;20007;-67
2023/10/05 10:08:23;;;;;;;;;;;;;;;;;;7364578;19;20098;-72
2023/10/05 10:11:06;;;;;;;11.27;2.65;;;;;;;;;;7364560;19;19915;-73
2023/10/05 10:13:37;;;;;;;5.47;2.08;;;;;;;;;;7362300;19;20006;-74
2023/10/05 10:16:17;;;;;;;5.13;2.00;;;;;;;;;;7387749;19;20017;-72
2023/10/05 10:18:46;;;;;;;6.70;2.17;;;;;;;;;;7385336;19;20019;-72
2023/10/05 10:21:25;;;;;;;10.40;3.63;;;;;;;;;;7363628;19;20010;-72
2023/10/05 10:24:01;;;;;;;9.60;2.65;;;;;;;;;;7361905;19;20382;-73
2023/10/05 10:26:27;;;;;;;7.80;2.55;;;;;;;;;;7364355;19;20114;-74
2023/10/05 10:31:25;;;;;;;6.75;2.17;;;;;;;;;;7364194;19;20006;-73
2023/10/05 10:33:51;;;;;;;7.03;2.20;;;;;;;;;;7383199;19;20254;-73
2023/10/05 10:36:23;;;;;;;9.95;2.47;;;;;;;;;;7362242;19;20843;-74
2023/10/05 10:38:50;;;;;;;6.47;2.28;;;;;;;;;;7358645;19;20411;-75
2023/10/05 10:41:17;;;;;;;5.82;2.40;;;;;;;;;;7355659;19;20019;-73
2023/10/05 10:43:49;;;;;;;5.93;2.17;;;;;;;;;;7358414;19;20010;-74
2023/10/05 10:46:33;;;;;;;10.35;3.08;;;;;;;;;;7362669;19;20018;-73
2023/10/05 10:48:59;;;;;;;5.78;2.55;;;;;;;;;;7385447;19;20090;-74
2023/10/05 10:51:36;;;;;;;7.82;2.45;;;;;;;;;;7362099;19;20014;-74
2023/10/05 10:54:14;;;;;;;5.32;2.10;;;;;;;;;;7359231;19;20593;-74
2023/10/05 10:56:43;;;;;;;9.43;2.53;;;;;;;;;;7365948;19;20022;-74
2023/10/05 10:59:19;;;;;;;9.82;2.72;;;;;;;;;;7365698;19;20010;-72
2023/10/05 11:01:52;;;;;;;7.97;2.58;;;;;;;;;;7372636;19;20014;-72
2023/10/05 11:04:25;;;;;;;5.68;2.25;;;;;;;;;;7370111;19;20002;-70
2023/10/05 11:07:09;;;;;;;7.07;2.08;;;;;;;;;;7392774;19;20875;-70
2023/10/05 11:09:54;;;;;;;8.20;2.63;;;;;;;;;;7373711;19;20468;-70
2023/10/05 11:12:23;;;;;;;5.55;2.53;;;;;;;;;;7376832;19;20704;-71
2023/10/05 11:15:00;;;;;;;8.98;2.30;;;;;;;;;;7373014;19;20082;-72
2023/10/05 11:17:31;;;;;;;6.28;2.42;;;;;;;;;;7373134;19;20468;-71
2023/10/05 11:20:11;;;;;;;8.07;2.55;;;;;;;;;;7373848;19;20005;-71
2023/10/05 11:22:42;;;;;;;10.52;2.70;;;;;;;;;;7369545;19;20006;-70
2023/10/05 11:25:14;;;;;;;8.00;2.45;;;;;;;;;;7395142;19;20692;-69
2023/10/05 11:27:48;;;;;;;5.95;2.20;;;;;;;;;;7371644;19;20010;-72
2023/10/05 11:30:21;;;;;;;8.88;2.70;;;;;;;;;;7372390;19;20018;-71
2023/10/05 11:32:54;;;;;;;5.88;2.17;;;;;;;;;;7365415;19;20014;-72
2023/10/05 11:35:28;;;;;;;5.80;2.00;;;;;;;;;;7372756;19;20029;-70
2023/10/05 11:38:04;;;;;;;5.50;2.15;;;;;;;;;;7372153;19;20011;-71
2023/10/05 11:40:31;;;;;;;4.80;2.05;;;;;;;;;;7371457;19;20110;-71
2023/10/05 11:42:56;;;;;;;7.40;2.28;;;;;;;;;;7391870;19;20507;-71
2023/10/05 11:45:22;;;;;;;7.30;2.03;;;;;;;;;;7372897;19;20002;-71
2023/10/05 11:47:52;;;;;;;5.38;2.25;;;;;;;;;;7370847;19;20006;-70
2023/10/05 11:50:24;;;;;;;6.57;2.35;;;;;;;;;;7372015;19;20002;-72
2023/10/05 11:52:52;;;;;;;6.93;2.40;;;;;;;;;;7370943;19;20026;-70
2023/10/05 11:55:20;;;;;;;6.40;2.30;;;;;;;;;;7371744;19;20007;-70
2023/10/05 11:57:46;;;;;;;5.93;2.50;;;;;;;;;;7392995;19;20476;-71
2023/10/05 12:00:13;;;;;;;5.38;1.98;;;;;;;;;;7371945;19;20062;-72
2023/10/05 12:02:38;;;;;;;7.57;2.40;;;;;;;;;;7369512;19;20035;-72
2023/10/05 12:05:05;;;;;;;7.50;2.60;;;;;;;;;;7371309;19;20007;-70
2023/10/05 12:07:30;;;;;;;3.25;1.60;;;;;;;;;;7370810;19;20000;-70
2023/10/05 12:09:56;;;;;;;5.93;1.65;;;;;;;;;;7391375;19;19995;-70
2023/10/05 12:12:22;;;;;;;4.72;2.10;;;;;;;;;;7367126;19;20038;-72
2023/10/05 12:14:47;;;;;;;5.68;2.08;;;;;;;;;;7369798;19;20006;-71
2023/10/05 12:17:12;;;;;;;3.75;1.80;;;;;;;;;;7371892;19;20017;-71
2023/10/05 12:19:39;;;;;;;5.82;2.15;;;;;;;;;;7370207;19;20006;-70
2023/10/05 12:22:06;;;;;;;7.65;2.30;;;;;;;;;;7390771;19;20113;-71
2023/10/05 12:24:33;;;;;;;3.92;1.90;;;;;;;;;;7370224;19;20062;-70
2023/10/05 12:26:59;;;;;;;6.05;1.95;;;;;;;;;;7372092;19;20711;-71
2023/10/05 12:29:28;;;;;;;8.30;2.17;;;;;;;;;;7371730;19;19999;-71
2023/10/05 12:31:56;;;;;;;6.55;1.95;;;;;;;;;;7369923;19;20097;-71
2023/10/05 12:34:23;;;;;;;5.90;2.05;;;;;;;;;;7370222;19;20540;-71
2023/10/05 12:36:49;;;;;;;7.03;2.67;;;;;;;;;;7392697;19;20003;-71
2023/10/05 12:39:26;;;;;;;4.47;2.20;;;;;;;;;;7367953;19;20788;-72
2023/10/05 12:41:52;;;;;;;4.93;1.90;;;;;;;;;;7369725;19;20366;-70
2023/10/05 12:44:17;;;;;;;5.90;2.00;;;;;;;;;;7369255;19;20014;-72
2023/10/05 12:46:45;;;;;;;6.35;2.17;;;;;;;;;;7370567;19;20006;-71
2023/10/05 12:49:11;;;;;;;5.03;1.73;;;;;;;;;;7372429;19;20007;-71
2023/10/05 12:51:38;;;;;;;6.28;2.67;;;;;;;;;;7390335;19;20023;-71
2023/10/05 12:54:08;;;;;;;4.65;1.85;;;;;;;;;;7368822;19;20508;-73
2023/10/05 12:56:38;;;;;;;5.60;2.40;;;;;;;;;;7369450;19;20022;-70
2023/10/05 12:59:05;;;;;;;5.15;2.25;;;;;;;;;;7370689;19;20019;-71
2023/10/05 13:01:31;;;;;;;8.45;2.03;;;;;;;;;;7370643;19;20133;-71
2023/10/05 13:03:56;;;;;;;7.45;2.15;;;;;;;;;;7390936;19;20030;-71
2023/10/05 13:06:24;;;;;;;5.10;1.75;;;;;;;;;;7369230;19;20536;-72
2023/10/05 13:08:50;;;;;;;3.95;2.00;;;;;;;;;;7369738;19;20612;-71
2023/10/05 13:11:15;;;;;;;6.22;1.98;;;;;;;;;;7367942;19;20468;-70
2023/10/05 13:13:40;;;;;;;5.18;1.80;;;;;;;;;;7366655;19;20017;-72
2023/10/05 13:16:13;;;;;;;5.68;1.85;;;;;;;;;;7391160;19;20062;-72
2023/10/05 13:18:45;;;;;;;6.45;1.80;;;;;;;;;;7368300;19;20006;-71
2023/10/05 13:21:11;;;;;;;6.90;1.83;;;;;;;;;;7369388;19;20527;-71
2023/10/05 13:23:36;;;;;;;5.70;1.85;;;;;;;;;;7365881;19;20044;-71
2023/10/05 13:26:06;;;;;;;7.05;1.90;;;;;;;;;;7368858;19;20006;-70
2023/10/05 13:28:31;;;;;;;4.38;1.70;;;;;;;;;;7369201;19;20789;-70
2023/10/05 13:30:57;;;;;;;4.30;1.67;;;;;;;;;;7391424;19;20024;-71
2023/10/05 13:33:28;;;;;;;9.45;2.35;;;;;;;;;;7366171;19;20011;-71
2023/10/05 13:35:55;;;;;;;6.20;2.28;;;;;;;;;;7369423;19;20746;-70
2023/10/05 13:38:38;;;;;;;8.13;2.30;;;;;;;;;;7368395;19;20006;-70
2023/10/05 13:43:29;;;;;;;5.00;2.00;;;;;;;;;;7366761;19;20466;-70
2023/10/05 13:45:56;;;;;;;4.85;2.00;;;;;;;;;;7390803;19;20018;-70
2023/10/05 13:48:22;;;;;;;6.32;2.10;;;;;;;;;;7368777;19;20010;-70
2023/10/05 13:50:49;;;;;;;5.63;2.15;;;;;;;;;;7368331;19;20010;-71
2023/10/05 13:53:15;;;;;;;6.65;2.10;;;;;;;;;;7367096;19;20014;-70
2023/10/05 13:55:41;;;;;;;3.35;1.75;;;;;;;;;;7368273;19;20580;-70
2023/10/05 13:58:10;;;;;;;5.10;2.20;;;;;;;;;;7389672;19;20010;-71
2023/10/05 14:00:36;;;;;;;6.43;1.70;;;;;;;;;;7368226;19;20013;-70
2023/10/05 14:03:03;;;;;;;7.70;1.80;;;;;;;;;;7365607;19;20010;-70
2023/10/05 14:05:28;;;;;;;10.32;2.75;;;;;;;;;;7367445;19;20042;-70
2023/10/05 14:07:54;;;;;;;4.03;1.90;;;;;;;;;;7368145;19;20089;-70
2023/10/05 14:10:23;;;;;;;4.95;1.73;;;;;;;;;;7366874;19;20036;-71
2023/10/05 14:12:50;;;;;;;6.28;2.20;;;;;;;;;;7387221;19;20007;-70
2023/10/05 14:15:22;;;;;;;6.10;1.75;;;;;;;;;;7367498;19;20466;-70
2023/10/05 14:17:50;;;;;;;7.93;2.10;;;;;;;;;;7367387;19;19998;-70
2023/10/05 14:20:17;;;;;;;7.97;2.35;;;;;;;;;;7367717;19;20015;-70
2023/10/05 14:22:44;;;;;;;15.20;2.30;;;;;;;;;;7367103;19;20014;-71
2023/10/05 14:25:17;;;;;;;9.50;1.98;;;;;;;;;;7387262;19;20031;-72
2023/10/05 14:27:44;;;;;;;6.25;2.28;;;;;;;;;;7391492;19;20003;-70
2023/10/05 14:30:10;;;;;;;8.00;2.30;;;;;;;;;;7367394;19;20433;-71
2023/10/05 14:32:38;;;;;;;5.22;2.13;;;;;;;;;;7365482;19;20002;-71
2023/10/05 14:35:07;;;;;;;3.83;1.70;;;;;;;;;;7366065;19;20086;-70
2023/10/05 14:37:33;;;;;;;7.57;1.92;;;;;;;;;;7367820;19;20010;-72
2023/10/05 14:39:59;;;;;;;4.72;1.60;;;;;;;;;;7389162;19;20653;-70
2023/10/05 14:42:25;;;;;;;5.45;2.13;;;;;;;;;;7365408;19;20017;-71
2023/10/05 14:44:50;;;;;;;9.00;2.55;;;;;;;;;;7367442;19;20003;-71
2023/10/05 14:47:18;;;;;;;6.25;2.10;;;;;;;;;;7367493;19;20383;-71
2023/10/05 14:49:44;;;;;;;10.63;2.13;;;;;;;;;;7368090;19;20006;-71
2023/10/05 14:52:11;;;;;;;6.22;2.00;;;;;;;;;;7382805;19;20087;-72
2023/10/05 14:54:37;;;;;;;6.28;2.58;;;;;;;;;;7388225;19;20003;-70
2023/10/05 14:57:03;;;;;;;6.28;2.28;;;;;;;;;;7367000;19;20492;-70
2023/10/05 14:59:29;;;;;;;11.25;2.22;;;;;;;;;;7366693;19;20011;-71
2023/10/05 15:01:54;;;;;;;6.88;2.50;;;;;;;;;;7367113;19;20014;-70
2023/10/05 15:04:21;;;;;;;8.85;2.13;;;;;;;;;;7366212;19;20010;-70
2023/10/05 15:06:47;;;;;;;4.18;1.65;;;;;;;;;;7389697;19;20046;-72
2023/10/05 15:09:20;;;;;;;9.02;2.10;;;;;;;;;;7367223;19;19999;-72
2023/10/05 15:11:45;;;;;;;5.03;1.80;;;;;;;;;;7365805;19;20010;-70